sensor_id;sensor_type;location;lat;lon;timestamp;P1;durP1;ratioP1;P2;durP2;ratioP2
56267;SDS011;42175;46.930;9.532;2023-04-01T00:00:53;7.85;;;2.88;;
56267;SDS011;42175;46.930;9.532;2023-04-01T00:03:21;6.22;;;2.88;;
56267;SDS011;42175;46.930;9.532;2023-04-01T00:05:47;7.10;;;2.53;;
56267;SDS011;42175;46.930;9.532;2023-04-01T00:08:13;7.85;;;3.05;;
56267;SDS011;42175;46.930;9.532;2023-04-01T00:10:40;8.15;;;2.88;;
56267;SDS011;42175;46.930;9.532;2023-04-01T00:13:06;8.57;;;3.22;;
56267;SDS011;42175;46.930;9.532;2023-04-01T00:15:32;7.20;;;3.15;;
56267;SDS011;42175;46.930;9.532;2023-04-01T00:17:57;4.30;;;2.22;;
56267;SDS011;42175;46.930;9.532;2023-04-01T00:20:24;5.30;;;2.92;;
56267;SDS011;42175;46.930;9.532;2023-04-01T00:22:50;6.68;;;2.85;;
56267;SDS011;42175;46.930;9.532;2023-04-01T00:25:16;7.75;;;2.53;;
56267;SDS011;42175;46.930;9.532;2023-04-01T00:27:42;8.20;;;2.45;;
56267;SDS011;42175;46.930;9.532;2023-04-01T00:30:08;6.25;;;2.90;;
56267;SDS011;42175;46.930;9.532;2023-04-01T00:32:34;6.57;;;2.53;;
56267;SDS011;42175;46.930;9.532;2023-04-01T00:35:00;7.00;;;2.30;;
56267;SDS011;42175;46.930;9.532;2023-04-01T00:37:27;7.05;;;2.17;;
56267;SDS011;42175;46.930;9.532;2023-04-01T00:39:53;5.78;;;2.30;;
56267;SDS011;42175;46.930;9.532;2023-04-01T00:42:19;5.28;;;2.10;;
56267;SDS011;42175;46.930;9.532;2023-04-01T00:44:49;5.05;;;2.35;;
56267;SDS011;42175;46.930;9.532;2023-04-01T00:47:16;5.63;;;2.10;;
56267;SDS011;42175;46.930;9.532;2023-04-01T00:49:43;7.32;;;2.55;;
56267;SDS011;42175;46.930;9.532;2023-04-01T00:52:13;5.47;;;2.95;;
56267;SDS011;42175;46.930;9.532;2023-04-01T00:54:44;4.70;;;2.60;;
56267;SDS011;42175;46.930;9.532;2023-04-01T00:57:13;5.40;;;2.25;;
56267;SDS011;42175;46.930;9.532;2023-04-01T00:59:48;4.68;;;2.10;;
56267;SDS011;42175;46.930;9.532;2023-04-01T01:02:18;5.72;;;2.20;;
56267;SDS011;42175;46.930;9.532;2023-04-01T01:04:44;4.88;;;2.03;;
56267;SDS011;42175;46.930;9.532;2023-04-01T01:37:56;5.00;;;2.50;;
56267;SDS011;42175;46.930;9.532;2023-04-01T01:40:31;4.40;;;1.67;;
56267;SDS011;42175;46.930;9.532;2023-04-01T01:42:59;4.55;;;1.77;;
56267;SDS011;42175;46.930;9.532;2023-04-01T01:45:30;4.05;;;2.30;;
56267;SDS011;42175;46.930;9.532;2023-04-01T01:48:00;3.67;;;1.67;;
56267;SDS011;42175;46.930;9.532;2023-04-01T01:50:30;3.00;;;1.35;;
56267;SDS011;42175;46.930;9.532;2023-04-01T01:53:02;4.10;;;2.03;;
56267;SDS011;42175;46.930;9.532;2023-04-01T01:55:34;4.95;;;1.60;;
56267;SDS011;42175;46.930;9.532;2023-04-01T01:58:07;5.68;;;1.85;;
56267;SDS011;42175;46.930;9.532;2023-04-01T02:00:54;3.17;;;1.85;;
56267;SDS011;42175;46.930;9.532;2023-04-01T02:03:24;4.82;;;1.98;;
56267;SDS011;42175;46.930;9.532;2023-04-01T02:05:52;3.13;;;1.85;;
56267;SDS011;42175;46.930;9.532;2023-04-01T02:08:22;4.47;;;1.95;;
56267;SDS011;42175;46.930;9.532;2023-04-01T02:10:57;3.15;;;1.75;;
56267;SDS011;42175;46.930;9.532;2023-04-01T02:14:11;5.35;;;1.65;;
56267;SDS011;42175;46.930;9.532;2023-04-01T02:16:31;5.25;;;2.17;;
56267;SDS011;42175;46.930;9.532;2023-04-01T02:19:03;4.90;;;1.88;;
56267;SDS011;42175;46.930;9.532;2023-04-01T02:21:33;4.55;;;2.13;;
56267;SDS011;42175;46.930;9.532;2023-04-01T02:24:02;4.30;;;1.40;;
56267;SDS011;42175;46.930;9.532;2023-04-01T02:26:30;3.13;;;1.73;;
56267;SDS011;42175;46.930;9.532;2023-04-01T02:28:56;6.03;;;1.80;;
56267;SDS011;42175;46.930;9.532;2023-04-01T02:31:24;3.20;;;1.70;;
56267;SDS011;42175;46.930;9.532;2023-04-01T02:33:51;5.07;;;1.92;;
56267;SDS011;42175;46.930;9.532;2023-04-01T02:36:18;3.85;;;1.73;;
56267;SDS011;42175;46.930;9.532;2023-04-01T02:38:44;4.38;;;1.70;;
56267;SDS011;42175;46.930;9.532;2023-04-01T02:41:11;3.00;;;1.50;;
56267;SDS011;42175;46.930;9.532;2023-04-01T02:43:37;4.32;;;1.77;;
56267;SDS011;42175;46.930;9.532;2023-04-01T02:46:03;2.63;;;1.25;;
56267;SDS011;42175;46.930;9.532;2023-04-01T02:48:29;3.60;;;1.45;;
56267;SDS011;42175;46.930;9.532;2023-04-01T02:50:55;4.20;;;2.00;;
56267;SDS011;42175;46.930;9.532;2023-04-01T02:53:21;2.97;;;1.50;;
56267;SDS011;42175;46.930;9.532;2023-04-01T02:55:47;4.18;;;2.42;;
56267;SDS011;42175;46.930;9.532;2023-04-01T02:58:15;3.40;;;1.65;;
56267;SDS011;42175;46.930;9.532;2023-04-01T03:00:41;4.28;;;1.60;;
56267;SDS011;42175;46.930;9.532;2023-04-01T03:03:07;3.38;;;1.65;;
56267;SDS011;42175;46.930;9.532;2023-04-01T03:05:33;5.20;;;2.58;;
56267;SDS011;42175;46.930;9.532;2023-04-01T03:07:59;3.40;;;1.67;;
56267;SDS011;42175;46.930;9.532;2023-04-01T03:10:25;4.00;;;1.83;;
56267;SDS011;42175;46.930;9.532;2023-04-01T03:12:50;4.93;;;1.75;;
56267;SDS011;42175;46.930;9.532;2023-04-01T03:15:16;3.83;;;1.50;;
56267;SDS011;42175;46.930;9.532;2023-04-01T03:17:42;3.17;;;1.60;;
56267;SDS011;42175;46.930;9.532;2023-04-01T03:20:08;3.03;;;1.65;;
56267;SDS011;42175;46.930;9.532;2023-04-01T03:22:36;5.20;;;1.55;;
56267;SDS011;42175;46.930;9.532;2023-04-01T03:25:02;2.95;;;1.60;;
56267;SDS011;42175;46.930;9.532;2023-04-01T03:27:29;2.42;;;1.40;;
56267;SDS011;42175;46.930;9.532;2023-04-01T03:29:54;3.42;;;1.73;;
56267;SDS011;42175;46.930;9.532;2023-04-01T03:32:20;3.00;;;1.50;;
56267;SDS011;42175;46.930;9.532;2023-04-01T03:34:46;3.25;;;1.50;;
56267;SDS011;42175;46.930;9.532;2023-04-01T03:37:12;3.40;;;1.30;;
56267;SDS011;42175;46.930;9.532;2023-04-01T03:39:38;3.38;;;1.73;;
56267;SDS011;42175;46.930;9.532;2023-04-01T03:42:03;3.33;;;1.20;;
56267;SDS011;42175;46.930;9.532;2023-04-01T03:44:32;3.53;;;1.55;;
56267;SDS011;42175;46.930;9.532;2023-04-01T03:46:58;3.42;;;1.45;;
56267;SDS011;42175;46.930;9.532;2023-04-01T03:49:24;2.75;;;1.60;;
56267;SDS011;42175;46.930;9.532;2023-04-01T03:51:50;2.70;;;1.10;;
56267;SDS011;42175;46.930;9.532;2023-04-01T03:54:16;2.47;;;1.38;;
56267;SDS011;42175;46.930;9.532;2023-04-01T03:56:43;2.60;;;1.52;;
56267;SDS011;42175;46.930;9.532;2023-04-01T03:59:08;2.13;;;1.20;;
56267;SDS011;42175;46.930;9.532;2023-04-01T04:01:34;4.25;;;1.45;;
56267;SDS011;42175;46.930;9.532;2023-04-01T04:04:00;3.67;;;1.40;;
56267;SDS011;42175;46.930;9.532;2023-04-01T04:06:26;3.70;;;1.38;;
56267;SDS011;42175;46.930;9.532;2023-04-01T04:08:52;3.00;;;1.33;;
56267;SDS011;42175;46.930;9.532;2023-04-01T04:11:19;2.05;;;1.30;;
56267;SDS011;42175;46.930;9.532;2023-04-01T04:13:46;2.67;;;1.52;;
56267;SDS011;42175;46.930;9.532;2023-04-01T04:16:14;3.80;;;1.55;;
56267;SDS011;42175;46.930;9.532;2023-04-01T04:18:41;2.33;;;1.25;;
56267;SDS011;42175;46.930;9.532;2023-04-01T04:21:10;2.45;;;1.05;;
56267;SDS011;42175;46.930;9.532;2023-04-01T04:23:40;3.30;;;1.40;;
56267;SDS011;42175;46.930;9.532;2023-04-01T04:26:07;1.83;;;1.13;;
56267;SDS011;42175;46.930;9.532;2023-04-01T04:28:35;2.97;;;1.33;;
56267;SDS011;42175;46.930;9.532;2023-04-01T04:31:00;3.55;;;1.58;;
56267;SDS011;42175;46.930;9.532;2023-04-01T04:33:26;9.32;;;1.30;;
56267;SDS011;42175;46.930;9.532;2023-04-01T04:35:56;2.47;;;1.20;;
56267;SDS011;42175;46.930;9.532;2023-04-01T04:38:23;2.45;;;1.40;;
56267;SDS011;42175;46.930;9.532;2023-04-01T04:40:49;2.13;;;1.25;;
56267;SDS011;42175;46.930;9.532;2023-04-01T04:43:16;2.47;;;1.17;;
56267;SDS011;42175;46.930;9.532;2023-04-01T04:45:43;4.03;;;1.40;;
56267;SDS011;42175;46.930;9.532;2023-04-01T04:48:09;2.20;;;1.10;;
56267;SDS011;42175;46.930;9.532;2023-04-01T04:50:39;2.25;;;1.30;;
56267;SDS011;42175;46.930;9.532;2023-04-01T04:53:05;1.92;;;0.90;;
56267;SDS011;42175;46.930;9.532;2023-04-01T04:55:31;4.10;;;1.17;;
56267;SDS011;42175;46.930;9.532;2023-04-01T04:57:56;1.95;;;1.20;;
56267;SDS011;42175;46.930;9.532;2023-04-01T05:00:22;3.78;;;1.50;;
56267;SDS011;42175;46.930;9.532;2023-04-01T05:02:48;2.83;;;1.38;;
56267;SDS011;42175;46.930;9.532;2023-04-01T05:05:13;2.63;;;1.27;;
56267;SDS011;42175;46.930;9.532;2023-04-01T05:07:40;2.42;;;1.10;;
56267;SDS011;42175;46.930;9.532;2023-04-01T05:10:05;2.40;;;1.23;;
56267;SDS011;42175;46.930;9.532;2023-04-01T05:12:31;2.25;;;1.20;;
56267;SDS011;42175;46.930;9.532;2023-04-01T05:15:01;2.28;;;1.05;;
56267;SDS011;42175;46.930;9.532;2023-04-01T05:17:28;2.10;;;1.02;;
56267;SDS011;42175;46.930;9.532;2023-04-01T05:19:54;2.53;;;1.08;;
56267;SDS011;42175;46.930;9.532;2023-04-01T05:22:20;3.03;;;1.30;;
56267;SDS011;42175;46.930;9.532;2023-04-01T05:24:45;2.40;;;1.02;;
56267;SDS011;42175;46.930;9.532;2023-04-01T05:27:11;2.67;;;1.33;;
56267;SDS011;42175;46.930;9.532;2023-04-01T05:29:37;4.30;;;1.25;;
56267;SDS011;42175;46.930;9.532;2023-04-01T05:32:02;1.98;;;1.20;;
56267;SDS011;42175;46.930;9.532;2023-04-01T05:34:28;3.17;;;1.10;;
56267;SDS011;42175;46.930;9.532;2023-04-01T05:36:54;2.13;;;1.23;;
56267;SDS011;42175;46.930;9.532;2023-04-01T05:39:19;2.25;;;1.15;;
56267;SDS011;42175;46.930;9.532;2023-04-01T05:41:45;2.15;;;1.15;;
56267;SDS011;42175;46.930;9.532;2023-04-01T05:44:11;2.28;;;1.00;;
56267;SDS011;42175;46.930;9.532;2023-04-01T05:46:37;1.85;;;1.00;;
56267;SDS011;42175;46.930;9.532;2023-04-01T05:49:03;1.40;;;0.90;;
56267;SDS011;42175;46.930;9.532;2023-04-01T05:51:28;2.50;;;1.02;;
56267;SDS011;42175;46.930;9.532;2023-04-01T05:53:54;2.17;;;1.25;;
56267;SDS011;42175;46.930;9.532;2023-04-01T05:56:20;2.80;;;1.20;;
56267;SDS011;42175;46.930;9.532;2023-04-01T05:58:46;2.03;;;1.02;;
56267;SDS011;42175;46.930;9.532;2023-04-01T06:01:16;3.70;;;1.40;;
56267;SDS011;42175;46.930;9.532;2023-04-01T06:03:43;4.03;;;1.08;;
56267;SDS011;42175;46.930;9.532;2023-04-01T06:06:16;2.30;;;1.17;;
56267;SDS011;42175;46.930;9.532;2023-04-01T06:16:52;2.13;;;1.02;;
56267;SDS011;42175;46.930;9.532;2023-04-01T06:19:47;3.45;;;1.30;;
56267;SDS011;42175;46.930;9.532;2023-04-01T06:25:28;4.50;;;1.15;;
56267;SDS011;42175;46.930;9.532;2023-04-01T06:30:43;2.95;;;1.27;;
56267;SDS011;42175;46.930;9.532;2023-04-01T06:44:48;2.63;;;0.95;;
56267;SDS011;42175;46.930;9.532;2023-04-01T06:58:03;4.53;;;1.10;;
56267;SDS011;42175;46.930;9.532;2023-04-01T07:00:36;12.77;;;1.83;;
56267;SDS011;42175;46.930;9.532;2023-04-01T07:05:54;2.67;;;0.90;;
56267;SDS011;42175;46.930;9.532;2023-04-01T07:08:24;3.58;;;0.88;;
56267;SDS011;42175;46.930;9.532;2023-04-01T07:11:01;6.18;;;1.55;;
56267;SDS011;42175;46.930;9.532;2023-04-01T07:19:20;2.87;;;1.40;;
56267;SDS011;42175;46.930;9.532;2023-04-01T07:21:57;5.18;;;2.38;;
56267;SDS011;42175;46.930;9.532;2023-04-01T07:24:36;11.63;;;2.03;;
56267;SDS011;42175;46.930;9.532;2023-04-01T07:27:08;6.88;;;1.65;;
56267;SDS011;42175;46.930;9.532;2023-04-01T07:29:35;6.07;;;1.40;;
56267;SDS011;42175;46.930;9.532;2023-04-01T07:37:42;2.38;;;1.30;;
56267;SDS011;42175;46.930;9.532;2023-04-01T07:40:14;3.50;;;1.50;;
56267;SDS011;42175;46.930;9.532;2023-04-01T07:51:02;3.80;;;1.75;;
56267;SDS011;42175;46.930;9.532;2023-04-01T07:56:09;6.22;;;1.85;;
56267;SDS011;42175;46.930;9.532;2023-04-01T08:04:32;4.40;;;1.85;;
56267;SDS011;42175;46.930;9.532;2023-04-01T08:12:22;3.08;;;1.50;;
56267;SDS011;42175;46.930;9.532;2023-04-01T08:20:47;8.77;;;2.17;;
56267;SDS011;42175;46.930;9.532;2023-04-01T08:26:00;5.78;;;1.73;;
56267;SDS011;42175;46.930;9.532;2023-04-01T08:28:39;7.47;;;2.10;;
56267;SDS011;42175;46.930;9.532;2023-04-01T08:31:16;11.07;;;2.50;;
56267;SDS011;42175;46.930;9.532;2023-04-01T08:36:36;5.20;;;1.63;;
56267;SDS011;42175;46.930;9.532;2023-04-01T08:47:46;6.82;;;2.13;;
56267;SDS011;42175;46.930;9.532;2023-04-01T08:50:50;7.10;;;1.50;;
56267;SDS011;42175;46.930;9.532;2023-04-01T09:12:15;4.60;;;1.52;;
56267;SDS011;42175;46.930;9.532;2023-04-01T09:15:01;6.97;;;1.88;;
56267;SDS011;42175;46.930;9.532;2023-04-01T09:17:57;6.43;;;1.52;;
56267;SDS011;42175;46.930;9.532;2023-04-01T09:21:02;5.18;;;1.60;;
56267;SDS011;42175;46.930;9.532;2023-04-01T09:40:15;3.58;;;1.83;;
56267;SDS011;42175;46.930;9.532;2023-04-01T10:12:55;6.65;;;1.63;;
56267;SDS011;42175;46.930;9.532;2023-04-01T10:18:36;6.10;;;1.30;;
56267;SDS011;42175;46.930;9.532;2023-04-01T10:26:38;4.15;;;1.40;;
56267;SDS011;42175;46.930;9.532;2023-04-01T10:29:14;3.78;;;1.15;;
56267;SDS011;42175;46.930;9.532;2023-04-01T10:37:27;3.38;;;1.40;;
56267;SDS011;42175;46.930;9.532;2023-04-01T10:42:55;6.05;;;1.27;;
56267;SDS011;42175;46.930;9.532;2023-04-01T10:59:32;6.53;;;1.25;;
56267;SDS011;42175;46.930;9.532;2023-04-01T11:19:08;3.90;;;1.08;;
56267;SDS011;42175;46.930;9.532;2023-04-01T11:27:11;3.83;;;1.40;;
56267;SDS011;42175;46.930;9.532;2023-04-01T11:29:58;6.10;;;1.50;;
56267;SDS011;42175;46.930;9.532;2023-04-01T11:38:38;4.65;;;1.30;;
56267;SDS011;42175;46.930;9.532;2023-04-01T11:41:20;3.88;;;1.60;;
56267;SDS011;42175;46.930;9.532;2023-04-01T11:53:15;7.78;;;1.60;;
56267;SDS011;42175;46.930;9.532;2023-04-01T11:55:38;11.63;;;1.60;;
56267;SDS011;42175;46.930;9.532;2023-04-01T11:58:10;11.15;;;2.38;;
56267;SDS011;42175;46.930;9.532;2023-04-01T12:01:13;11.02;;;1.75;;
56267;SDS011;42175;46.930;9.532;2023-04-01T12:04:02;6.20;;;1.20;;
56267;SDS011;42175;46.930;9.532;2023-04-01T12:12:11;7.13;;;1.52;;
56267;SDS011;42175;46.930;9.532;2023-04-01T12:14:57;8.13;;;1.73;;
56267;SDS011;42175;46.930;9.532;2023-04-01T12:23:30;6.97;;;1.70;;
56267;SDS011;42175;46.930;9.532;2023-04-01T12:39:36;10.27;;;1.52;;
56267;SDS011;42175;46.930;9.532;2023-04-01T12:50:27;5.13;;;1.13;;
56267;SDS011;42175;46.930;9.532;2023-04-01T12:56:14;8.43;;;1.50;;
56267;SDS011;42175;46.930;9.532;2023-04-01T13:18:39;4.07;;;1.25;;
56267;SDS011;42175;46.930;9.532;2023-04-01T13:24:03;4.10;;;1.30;;
56267;SDS011;42175;46.930;9.532;2023-04-01T13:27:01;3.42;;;1.33;;
56267;SDS011;42175;46.930;9.532;2023-04-01T13:29:36;2.47;;;1.00;;
56267;SDS011;42175;46.930;9.532;2023-04-01T13:35:20;2.40;;;0.90;;
56267;SDS011;42175;46.930;9.532;2023-04-01T13:38:05;3.13;;;1.42;;
56267;SDS011;42175;46.930;9.532;2023-04-01T13:43:29;5.65;;;1.92;;
56267;SDS011;42175;46.930;9.532;2023-04-01T13:51:12;2.38;;;0.88;;
56267;SDS011;42175;46.930;9.532;2023-04-01T14:08:08;3.50;;;0.80;;
56267;SDS011;42175;46.930;9.532;2023-04-01T14:13:50;3.13;;;1.10;;
56267;SDS011;42175;46.930;9.532;2023-04-01T14:19:41;4.65;;;1.10;;
56267;SDS011;42175;46.930;9.532;2023-04-01T14:52:43;2.95;;;1.00;;
56267;SDS011;42175;46.930;9.532;2023-04-01T14:58:07;4.75;;;1.00;;
56267;SDS011;42175;46.930;9.532;2023-04-01T15:17:05;6.88;;;1.10;;
56267;SDS011;42175;46.930;9.532;2023-04-01T15:25:05;2.33;;;0.98;;
56267;SDS011;42175;46.930;9.532;2023-04-01T15:33:32;3.15;;;0.80;;
56267;SDS011;42175;46.930;9.532;2023-04-01T15:39:13;3.47;;;1.23;;
56267;SDS011;42175;46.930;9.532;2023-04-01T15:47:00;2.03;;;1.15;;
56267;SDS011;42175;46.930;9.532;2023-04-01T15:49:43;4.10;;;0.90;;
56267;SDS011;42175;46.930;9.532;2023-04-01T15:52:24;7.10;;;1.23;;
56267;SDS011;42175;46.930;9.532;2023-04-01T16:00:56;1.40;;;0.70;;
56267;SDS011;42175;46.930;9.532;2023-04-01T16:06:35;4.70;;;1.20;;
56267;SDS011;42175;46.930;9.532;2023-04-01T16:12:38;1.80;;;0.77;;
56267;SDS011;42175;46.930;9.532;2023-04-01T16:20:51;1.67;;;0.73;;
56267;SDS011;42175;46.930;9.532;2023-04-01T16:23:40;5.32;;;1.17;;
56267;SDS011;42175;46.930;9.532;2023-04-01T16:34:14;1.10;;;0.73;;
56267;SDS011;42175;46.930;9.532;2023-04-01T16:36:45;1.35;;;0.73;;
56267;SDS011;42175;46.930;9.532;2023-04-01T16:50:59;9.43;;;1.27;;
56267;SDS011;42175;46.930;9.532;2023-04-01T16:56:11;7.07;;;1.27;;
56267;SDS011;42175;46.930;9.532;2023-04-01T16:58:59;7.25;;;0.90;;
56267;SDS011;42175;46.930;9.532;2023-04-01T17:04:23;3.90;;;0.70;;
56267;SDS011;42175;46.930;9.532;2023-04-01T17:13:11;3.92;;;0.70;;
56267;SDS011;42175;46.930;9.532;2023-04-01T17:15:46;2.55;;;0.90;;
56267;SDS011;42175;46.930;9.532;2023-04-01T17:18:28;2.63;;;0.98;;
56267;SDS011;42175;46.930;9.532;2023-04-01T17:23:51;2.03;;;0.65;;
56267;SDS011;42175;46.930;9.532;2023-04-01T17:28:57;3.90;;;1.05;;
56267;SDS011;42175;46.930;9.532;2023-04-01T17:43:03;2.92;;;0.90;;
56267;SDS011;42175;46.930;9.532;2023-04-01T17:45:55;3.53;;;1.13;;
56267;SDS011;42175;46.930;9.532;2023-04-01T17:48:41;3.05;;;1.50;;
56267;SDS011;42175;46.930;9.532;2023-04-01T17:51:43;1.50;;;0.77;;
56267;SDS011;42175;46.930;9.532;2023-04-01T17:54:50;4.18;;;1.00;;
56267;SDS011;42175;46.930;9.532;2023-04-01T18:12:04;3.13;;;0.80;;
56267;SDS011;42175;46.930;9.532;2023-04-01T18:23:04;5.00;;;0.88;;
56267;SDS011;42175;46.930;9.532;2023-04-01T18:25:41;11.82;;;1.48;;
56267;SDS011;42175;46.930;9.532;2023-04-01T18:28:16;10.55;;;0.93;;
56267;SDS011;42175;46.930;9.532;2023-04-01T18:30:51;8.30;;;1.00;;
56267;SDS011;42175;46.930;9.532;2023-04-01T18:33:33;2.38;;;0.77;;
56267;SDS011;42175;46.930;9.532;2023-04-01T18:38:55;5.03;;;0.95;;
56267;SDS011;42175;46.930;9.532;2023-04-01T18:50:18;7.28;;;0.90;;
56267;SDS011;42175;46.930;9.532;2023-04-01T18:52:58;5.10;;;0.80;;
56267;SDS011;42175;46.930;9.532;2023-04-01T18:55:49;5.55;;;0.90;;
56267;SDS011;42175;46.930;9.532;2023-04-01T18:58:22;3.50;;;1.33;;
56267;SDS011;42175;46.930;9.532;2023-04-01T19:01:02;1.05;;;0.80;;
56267;SDS011;42175;46.930;9.532;2023-04-01T19:03:55;2.22;;;0.73;;
56267;SDS011;42175;46.930;9.532;2023-04-01T19:06:30;7.72;;;1.02;;
56267;SDS011;42175;46.930;9.532;2023-04-01T19:14:24;5.03;;;0.90;;
56267;SDS011;42175;46.930;9.532;2023-04-01T19:26:19;1.73;;;0.80;;
56267;SDS011;42175;46.930;9.532;2023-04-01T19:29:15;2.20;;;1.38;;
56267;SDS011;42175;46.930;9.532;2023-04-01T19:39:57;3.40;;;1.00;;
56267;SDS011;42175;46.930;9.532;2023-04-01T19:43:03;7.47;;;1.00;;
56267;SDS011;42175;46.930;9.532;2023-04-01T19:53:52;2.00;;;0.88;;
56267;SDS011;42175;46.930;9.532;2023-04-01T19:59:17;1.30;;;0.75;;
56267;SDS011;42175;46.930;9.532;2023-04-01T20:02:35;3.08;;;1.40;;
56267;SDS011;42175;46.930;9.532;2023-04-01T20:04:55;4.07;;;0.95;;
56267;SDS011;42175;46.930;9.532;2023-04-01T20:07:41;7.50;;;1.10;;
56267;SDS011;42175;46.930;9.532;2023-04-01T20:10:17;2.47;;;0.82;;
56267;SDS011;42175;46.930;9.532;2023-04-01T20:15:21;1.05;;;0.95;;
56267;SDS011;42175;46.930;9.532;2023-04-01T20:18:19;5.72;;;0.80;;
56267;SDS011;42175;46.930;9.532;2023-04-01T20:20:53;3.75;;;1.20;;
56267;SDS011;42175;46.930;9.532;2023-04-01T20:23:39;6.65;;;1.13;;
56267;SDS011;42175;46.930;9.532;2023-04-01T20:26:21;3.08;;;0.90;;
56267;SDS011;42175;46.930;9.532;2023-04-01T20:29:11;1.10;;;0.60;;
56267;SDS011;42175;46.930;9.532;2023-04-01T20:31:41;3.58;;;0.70;;
56267;SDS011;42175;46.930;9.532;2023-04-01T20:40:34;1.92;;;0.70;;
56267;SDS011;42175;46.930;9.532;2023-04-01T20:49:15;1.88;;;0.60;;
56267;SDS011;42175;46.930;9.532;2023-04-01T20:57:38;1.50;;;0.60;;
56267;SDS011;42175;46.930;9.532;2023-04-01T21:08:24;2.03;;;0.80;;
56267;SDS011;42175;46.930;9.532;2023-04-01T21:13:53;1.88;;;0.77;;
56267;SDS011;42175;46.930;9.532;2023-04-01T21:16:39;1.20;;;0.63;;
56267;SDS011;42175;46.930;9.532;2023-04-01T21:19:16;0.73;;;0.55;;
56267;SDS011;42175;46.930;9.532;2023-04-01T21:27:47;1.88;;;0.52;;
56267;SDS011;42175;46.930;9.532;2023-04-01T21:44:10;3.33;;;0.60;;
56267;SDS011;42175;46.930;9.532;2023-04-01T22:04:17;1.25;;;0.60;;
56267;SDS011;42175;46.930;9.532;2023-04-01T22:14:57;1.90;;;0.50;;
56267;SDS011;42175;46.930;9.532;2023-04-01T22:25:52;1.20;;;0.60;;
56267;SDS011;42175;46.930;9.532;2023-04-01T22:28:38;0.93;;;0.50;;
56267;SDS011;42175;46.930;9.532;2023-04-01T22:31:10;0.90;;;0.60;;
56267;SDS011;42175;46.930;9.532;2023-04-01T22:44:06;4.82;;;0.80;;
56267;SDS011;42175;46.930;9.532;2023-04-01T22:49:58;2.25;;;0.52;;
56267;SDS011;42175;46.930;9.532;2023-04-01T22:55:16;5.35;;;0.68;;
56267;SDS011;42175;46.930;9.532;2023-04-01T22:57:51;2.47;;;0.60;;
56267;SDS011;42175;46.930;9.532;2023-04-01T23:00:43;1.13;;;0.50;;
56267;SDS011;42175;46.930;9.532;2023-04-01T23:03:38;4.45;;;0.47;;
56267;SDS011;42175;46.930;9.532;2023-04-01T23:06:19;0.43;;;0.40;;
56267;SDS011;42175;46.930;9.532;2023-04-01T23:08:56;2.97;;;0.68;;
56267;SDS011;42175;46.930;9.532;2023-04-01T23:19:52;1.02;;;0.60;;
56267;SDS011;42175;46.930;9.532;2023-04-01T23:22:49;4.60;;;0.70;;
56267;SDS011;42175;46.930;9.532;2023-04-01T23:31:28;1.35;;;0.70;;
56267;SDS011;42175;46.930;9.532;2023-04-01T23:36:39;0.88;;;0.50;;
56267;SDS011;42175;46.930;9.532;2023-04-01T23:41:53;1.80;;;0.50;;
56267;SDS011;42175;46.930;9.532;2023-04-01T23:44:21;0.88;;;0.50;;
56267;SDS011;42175;46.930;9.532;2023-04-01T23:46:49;2.38;;;0.60;;
56267;SDS011;42175;46.930;9.532;2023-04-01T23:49:24;0.82;;;0.50;;
56267;SDS011;42175;46.930;9.532;2023-04-01T23:51:58;0.77;;;0.60;;
56267;SDS011;42175;46.930;9.532;2023-04-01T23:54:33;0.83;;;0.47;;
56267;SDS011;42175;46.930;9.532;2023-04-01T23:57:06;3.00;;;0.50;;
56267;SDS011;42175;46.930;9.532;2023-04-01T23:59:37;4.50;;;1.20;;
